Flight Track Log - Related Links

Times and Time Zones

All times are in EDT time to prevent confusion due to time zone crossing. See the SWA2855 flight status page for this flight to view local times or setup timezone preferences in your user account.

Time Position Orientation Groundspeed Altitude Reporting Facility
EDT Latitude Longitude Course Direction KTS MPH feet Rate Location/Type
Thu 06:20:07 AM 39.1333 -76.6667 211° Southwest 193 222 2,200  Level Potomac TRACON
Thu 06:22:23 AM 39.1964 -76.8531 294° West 240 276 9,600 3,153 Climbing Washington Center
Thu 06:23:23 AM 39.2119 -76.9550 281° West 271 312 12,500 3,000 Climbing Washington Center
Thu 06:24:23 AM 39.2106 -77.0756 269° West 309 356 15,600 3,050 Climbing Washington Center
Thu 06:25:00 AM 39.1237 -77.2131 211° Southwest  Level FlightAware Approximate
Thu 06:25:23 AM 39.1781 -77.1847 249° West 337 388 18,600  Level Washington Center
Thu 06:26:23 AM 39.0958 -77.2550 214° Southwest 326 375 21,000 2,300 Climbing Washington Center
Thu 06:28:23 AM 38.9800 -77.4661 235° Southwest 357 411 25,500 2,000 Climbing Washington Center
Thu 06:29:23 AM 38.9594 -77.5911 258° West 380 437 27,000 750 Climbing Washington Center
Thu 06:30:23 AM 38.9442 -77.7508 263° West 412 474 27,000  Level Washington Center
Thu 06:31:23 AM 38.9494 -77.9058 273° West 417 480 27,000 350 Level Washington Center
Thu 06:32:23 AM 38.9553 -78.0367 273° West 423 487 27,700 750 Climbing Washington Center
Thu 06:33:23 AM 38.9583 -78.1836 272° West 423 487 28,500 1,150 Climbing Washington Center
Thu 06:34:23 AM 38.9633 -78.3333 273° West 423 487 30,000 750 Climbing Washington Center
Thu 06:35:23 AM 38.9703 -78.4858 273° West 423 487 30,000  Level Washington Center
Thu 06:36:23 AM 38.9728 -78.6381 271° West 423 487 30,000  Level Washington Center
Thu 06:37:23 AM 38.9794 -78.7881 273° West 423 487 30,000  Level Washington Center
Thu 06:38:23 AM 38.9878 -78.9381 274° West 423 487 30,000  Level Washington Center
Thu 06:39:23 AM 38.9983 -79.0825 275° West 423 487 30,000  Level Washington Center
Thu 06:40:23 AM 39.0125 -79.2331 277° West 423 487 30,000  Level Washington Center
Thu 06:41:23 AM 39.0206 -79.3803 274° West 423 487 30,000  Level Washington Center
Thu 06:42:23 AM 39.0325 -79.5278 276° West 423 487 30,000  Level Washington Center
Thu 06:43:23 AM 39.0442 -79.6756 276° West 423 487 30,000  Level Washington Center
Thu 06:44:23 AM 39.0536 -79.8231 275° West 418 481 30,000  Level Washington Center
Thu 06:45:23 AM 39.0631 -79.9681 275° West 413 475 30,000  Level Washington Center
Thu 06:46:33 AM 39.0711 -80.1442 273° West 417 480 30,000  Level Indianapolis Center
Thu 06:47:33 AM 39.0797 -80.2914 274° West 414 476 30,000  Level Indianapolis Center
Thu 06:48:34 AM 39.0903 -80.4394 275° West 416 479 30,000  Level Indianapolis Center
Thu 06:49:35 AM 39.0992 -80.5864 275° West 414 476 30,000  Level Indianapolis Center
Thu 06:50:35 AM 39.1242 -80.7303 283° West 419 482 30,000  Level Indianapolis Center
Thu 06:51:36 AM 39.1642 -80.8675 291° West 414 476 30,000  Level Indianapolis Center
Thu 06:52:36 AM 39.2053 -81.0050 291° West 414 476 30,000 -298 Level Indianapolis Center
Thu 06:53:37 AM 39.2464 -81.1419 291° West 412 474 29,400 -787 Descending Indianapolis Center
Thu 06:54:38 AM 39.2853 -81.2794 290° West 411 473 28,400 -942 Descending Indianapolis Center
Thu 06:55:38 AM 39.3256 -81.4172 291° West 412 474 27,500 -1,587 Descending Indianapolis Center
Thu 06:56:39 AM 39.3719 -81.5811 290° West 408 470 25,200 -2,262 Descending Indianapolis Center
Thu 06:57:40 AM 39.4100 -81.7083 291° West 385 443 22,900 -2,281 Descending Indianapolis Center
Thu 06:58:40 AM 39.4447 -81.8306 290° West 367 422 20,600 -2,257 Descending Indianapolis Center
Thu 06:59:29 AM 39.4706 -81.9294 289° West 351 404 18,800 -2,139 Descending Indianapolis Center
Thu 07:00:35 AM 39.5050 -82.0517 290° West 336 387 16,500 -1,606 Descending Indianapolis Center
Thu 07:01:36 AM 39.5592 -82.1600 303° West 341 392 15,400 -1,266 Descending Indianapolis Center
Thu 07:02:43 AM 39.6150 -82.2500 309° West 335 386 13,800 -1,890 Descending Indianapolis Center
Thu 07:03:43 AM 39.6769 -82.3533 308° West 321 369 11,400 -1,884 Descending Indianapolis Center
Thu 07:04:44 AM 39.7253 -82.4331 308° West 314 361 10,000 -1,131 Descending Indianapolis Center
Thu 07:05:45 AM 39.7767 -82.5192 308° West 302 348 9,100 -1,321 Descending Indianapolis Center
Thu 07:06:33 AM 39.8183 -82.5933 306° West 269 310 7,600 -1,651 Descending Indianapolis Center
Thu 07:07:34 AM 39.8658 -82.6692 309° West 269 310 6,100 -793 Descending Indianapolis Center
Thu 07:08:34 AM 39.8894 -82.7561 290° West 247 284 6,000 -50 Descending Indianapolis Center
Thu 07:09:35 AM 39.9047 -82.8392 284° West 228 262 6,000 -414 Level Indianapolis Center
Thu 07:10:30 AM 39.9044 -82.9072 270° West 194 223 5,200 -1,135 Descending Indianapolis Center
Thu 07:10:49 AM 39.9058 -82.9308 274° West 204 235 4,600 -1,300 Descending Indianapolis Center
Thu 07:11:30 AM 39.9142 -82.9789 283° West 196 226 3,900 -984 Descending Indianapolis Center
Thu 07:11:50 AM 39.9169 -82.9994 280° West 196 226 3,600 -716 Descending Indianapolis Center
Thu 07:12:37 AM 39.9375 -83.0361 306° West 195 224 3,100 -412 Descending Indianapolis Center
Thu 07:13:32 AM 39.9922 -83.0314 North 215 247 2,900 -480 Descending Indianapolis Center
Thu 07:13:52 AM 40.0047 -83.0108 52° Northeast 218 251 2,500 -1,111 Descending Indianapolis Center
Thu 07:14:26 AM 40.0000 -82.9781 101° East 162 186 1,900 -1,082 Descending Indianapolis Center
Thu 07:14:53 AM 39.9972 -82.9544 99° East 170 196 1,400 -787 Descending Indianapolis Center
Thu 07:15:27 AM 39.9972 -82.9286 90° East 117 135 1,100 -500 Descending Indianapolis Center
Thu 07:15:53 AM 39.9953 -82.9158 101° East 146 168 900 -462 Descending Indianapolis Center

Login

Don't have an account? Register now (free) for customized features, flight alerts, and more!